Time;durP1;ratioP1;P1;durP2;ratioP2;P2;SDS_P1;SDS_P2;PMS_P1;PMS_P2;Temp;Humidity;BMP_temperature;BMP_pressure;BME280_temperature;BME280_humidity;BME280_pressure;Samples;Min_cycle;Max_cycle;Signal;HPM_P1;HPM_P2
2021/08/22 00:00:06;;;;;;;;;;;22.20;65.00;;;;;;5013951;28;19980;-66
2021/08/22 00:02:31;;;;;;;;;;;22.20;64.90;;;;;;5010940;28;19917;-66
2021/08/22 00:04:57;;;;;;;;;;;22.20;64.30;;;;;;5012956;28;19913;-64
2021/08/22 00:07:23;;;;;;;;;;;22.20;64.90;;;;;;5000590;28;19913;-62
2021/08/22 00:09:48;;;;;;;;;;;22.20;64.40;;;;;;5011483;28;19976;-65
2021/08/22 00:12:14;;;;;;;;;;;22.20;64.90;;;;;;5013657;28;20361;-66
2021/08/22 00:14:39;;;;;;;;;;;22.10;64.70;;;;;;5003452;28;20007;-66
2021/08/22 00:17:05;;;;;;;;;;;22.20;64.90;;;;;;5000320;28;19914;-66
2021/08/22 00:19:30;;;;;;;;;;;22.20;64.80;;;;;;5001557;28;19922;-66
2021/08/22 00:21:56;;;;;;;;;;;22.20;65.00;;;;;;4998500;28;20354;-64
2021/08/22 00:24:21;;;;;;;;;;;22.20;64.90;;;;;;5003096;28;19964;-66
2021/08/22 00:26:47;;;;;;;;;;;22.20;64.90;;;;;;5002752;28;20384;-66
2021/08/22 00:29:12;;;;;;;;;;;22.20;64.80;;;;;;5009225;28;19914;-65
2021/08/22 00:31:37;;;;;;;;;;;22.20;64.80;;;;;;5003278;28;19979;-66
2021/08/22 00:34:03;;;;;;;;;;;22.20;64.80;;;;;;4998814;28;20415;-66
2021/08/22 00:36:28;;;;;;;;;;;22.20;64.70;;;;;;5002263;28;19956;-66
2021/08/22 00:38:54;;;;;;;;;;;22.20;64.30;;;;;;5007325;28;19928;-66
2021/08/22 00:41:19;;;;;;;;;;;22.20;64.60;;;;;;5003278;28;20599;-66
2021/08/22 00:43:45;;;;;;;;;;;22.20;64.60;;;;;;5001287;28;19917;-66
2021/08/22 00:46:10;;;;;;;;;;;22.20;64.80;;;;;;5001499;28;19917;-65
2021/08/22 00:48:36;;;;;;;;;;;22.20;64.80;;;;;;5009047;28;19940;-66
2021/08/22 00:51:01;;;;;;;;;;;22.20;64.80;;;;;;5001463;28;19918;-62
2021/08/22 00:53:27;;;;;;;;;;;22.20;64.60;;;;;;5006384;28;19913;-66
2021/08/22 00:55:53;;;;;;;;;;;22.20;64.80;;;;;;5002827;28;20380;-65
2021/08/22 00:58:18;;;;;;;;;;;22.20;64.80;;;;;;5008484;28;19936;-66
2021/08/22 01:00:44;;;;;;;;;;;22.20;64.70;;;;;;5003111;28;20377;-66
2021/08/22 01:03:12;;;;;;;;;;;22.20;64.70;;;;;;5010761;28;19967;-65
2021/08/22 01:05:47;;;;;;;;;;;22.20;64.80;;;;;;5003091;28;19986;-67
2021/08/22 01:08:20;;;;;;;;;;;22.20;64.70;;;;;;4998118;28;19921;-66
2021/08/22 01:10:46;;;;;;;;;;;22.20;64.70;;;;;;5001201;28;19921;-66
2021/08/22 01:13:13;;;;;;;;;;;22.20;64.80;;;;;;5000306;28;19914;-66
2021/08/22 01:15:39;;;;;;;;;;;22.20;64.80;;;;;;5002720;28;20017;-66
2021/08/22 01:18:05;;;;;;;;;;;22.20;64.70;;;;;;4998804;28;20372;-67
2021/08/22 01:20:35;;;;;;;;;;;22.20;64.80;;;;;;5000676;28;19926;-62
2021/08/22 01:23:03;;;;;;;;;;;22.20;65.50;;;;;;4998328;28;20676;-64
2021/08/22 01:25:29;;;;;;;;;;;22.20;64.90;;;;;;5015226;28;19917;-66
2021/08/22 01:27:54;;;;;;;;;;;22.20;65.00;;;;;;5009362;28;19918;-66
2021/08/22 01:30:20;;;;;;;;;;;22.20;64.90;;;;;;5016134;28;20300;-66
2021/08/22 01:32:46;;;;;;;;;;;22.20;65.00;;;;;;5023697;22;19951;-63
2021/08/22 01:35:12;;;;;;;;;;;22.20;64.90;;;;;;5022956;28;19913;-55
2021/08/22 01:37:38;;;;;;;;;;;22.20;64.90;;;;;;5040723;28;20716;-57
2021/08/22 01:40:04;;;;;;;;;;;22.20;64.90;;;;;;5042370;28;19919;-56
2021/08/22 01:42:29;;;;;;;;;;;22.20;64.90;;;;;;5041323;28;20389;-59
2021/08/22 01:44:55;;;;;;;;;;;22.20;64.90;;;;;;5042819;28;19917;-57
2021/08/22 01:47:20;;;;;;;;;;;22.20;64.90;;;;;;5041548;28;19960;-56
2021/08/22 01:49:45;;;;;;;;;;;22.20;64.80;;;;;;5042644;28;19917;-59
2021/08/22 01:52:12;;;;;;;;;;;22.20;64.70;;;;;;5043147;28;19989;-53
2021/08/22 01:54:37;;;;;;;;;;;22.20;64.70;;;;;;5041541;28;19920;-60
2021/08/22 01:57:03;;;;;;;;;;;22.20;64.80;;;;;;5041501;28;19916;-56
2021/08/22 01:59:29;;;;;;;;;;;22.20;64.80;;;;;;5041118;28;20397;-56
2021/08/22 02:01:54;;;;;;;;;;;22.20;64.80;;;;;;5042538;28;19982;-55
2021/08/22 02:04:29;;;;;;;;;;;22.20;64.80;;;;;;5042534;28;20436;-60
2021/08/22 02:06:55;;;;;;;;;;;22.20;64.80;;;;;;5041716;28;20573;-57
2021/08/22 02:09:22;;;;;;;;;;;22.20;64.70;;;;;;5048022;28;19940;-61
2021/08/22 02:11:49;;;;;;;;;;;22.20;64.50;;;;;;5040956;28;19996;-57
2021/08/22 02:14:14;;;;;;;;;;;22.20;64.60;;;;;;5041374;28;20432;-59
2021/08/22 02:16:41;;;;;;;;;;;22.20;64.10;;;;;;5041025;28;19912;-56
2021/08/22 02:19:06;;;;;;;;;;;22.20;64.60;;;;;;5040416;28;19927;-57
2021/08/22 02:21:32;;;;;;;;;;;22.20;64.50;;;;;;5041935;28;19917;-56
2021/08/22 02:23:57;;;;;;;;;;;22.20;64.50;;;;;;5040253;28;19963;-57
2021/08/22 02:26:23;;;;;;;;;;;22.20;64.20;;;;;;5040770;28;19917;-58
2021/08/22 02:28:55;;;;;;;;;;;22.20;64.30;;;;;;5041638;28;19917;-59
2021/08/22 02:31:20;;;;;;;;;;;22.20;64.50;;;;;;5040369;28;19920;-59
2021/08/22 02:33:46;;;;;;;;;;;22.20;64.50;;;;;;5041925;28;19982;-62
2021/08/22 02:36:11;;;;;;;;;;;22.20;64.40;;;;;;5040859;28;19912;-56
2021/08/22 02:38:36;;;;;;;;;;;22.20;64.30;;;;;;5041306;28;19924;-60
2021/08/22 02:41:02;;;;;;;;;;;22.20;64.50;;;;;;5041889;28;20549;-59
2021/08/22 02:43:27;;;;;;;;;;;22.20;64.40;;;;;;5040753;28;19917;-56
2021/08/22 02:45:53;;;;;;;;;;;22.20;64.30;;;;;;5041799;28;19917;-59
2021/08/22 02:48:18;;;;;;;;;;;22.20;64.20;;;;;;5041486;28;19924;-59
2021/08/22 02:50:44;;;;;;;;;;;22.20;64.30;;;;;;5040954;28;20628;-54
2021/08/22 02:53:10;;;;;;;;;;;22.20;64.10;;;;;;5041076;28;19916;-58
2021/08/22 02:55:35;;;;;;;;;;;22.20;64.10;;;;;;5041069;28;19924;-58
2021/08/22 02:58:01;;;;;;;;;;;22.20;63.90;;;;;;5041561;28;20389;-60
2021/08/22 03:00:26;;;;;;;;;;;22.20;64.10;;;;;;5040226;28;19924;-60
2021/08/22 03:02:52;;;;;;;;;;;22.20;64.10;;;;;;5039361;28;19913;-58
2021/08/22 03:05:17;;;;;;;;;;;22.20;64.10;;;;;;5040751;28;19920;-59
2021/08/22 03:07:43;;;;;;;;;;;22.20;64.10;;;;;;5040322;28;19924;-57
2021/08/22 03:10:08;;;;;;;;;;;22.20;64.00;;;;;;5040586;28;20023;-56
2021/08/22 03:12:34;;;;;;;;;;;22.20;64.00;;;;;;5040535;28;20001;-58
2021/08/22 03:14:59;;;;;;;;;;;22.20;63.90;;;;;;5039071;28;19913;-53
2021/08/22 03:17:25;;;;;;;;;;;22.20;63.90;;;;;;5039907;28;19917;-57
2021/08/22 03:19:51;;;;;;;;;;;22.20;64.00;;;;;;5038934;28;20814;-59
2021/08/22 03:22:17;;;;;;;;;;;22.20;63.70;;;;;;5039855;28;20381;-56
2021/08/22 03:24:42;;;;;;;;;;;22.20;63.80;;;;;;5034499;28;19962;-54
2021/08/22 03:27:08;;;;;;;;;;;22.20;63.80;;;;;;5038471;28;19913;-56
2021/08/22 03:29:33;;;;;;;;;;;22.20;63.80;;;;;;5039940;28;19928;-54
2021/08/22 03:31:59;;;;;;;;;;;22.20;63.60;;;;;;5035939;28;20374;-60
2021/08/22 03:34:24;;;;;;;;;;;22.20;63.60;;;;;;5037175;28;19917;-60
2021/08/22 03:36:50;;;;;;;;;;;22.20;63.50;;;;;;5040180;28;19923;-57
2021/08/22 03:39:15;;;;;;;;;;;22.10;63.40;;;;;;5039756;28;19920;-58
2021/08/22 03:41:41;;;;;;;;;;;22.20;63.60;;;;;;5039531;28;20270;-58
2021/08/22 03:44:08;;;;;;;;;;;22.20;64.20;;;;;;5039480;28;19920;-60
2021/08/22 03:46:34;;;;;;;;;;;22.20;63.60;;;;;;5028724;28;20492;-58
2021/08/22 03:48:59;;;;;;;;;;;22.20;63.60;;;;;;5023652;28;19923;-58
2021/08/22 03:51:26;;;;;;;;;;;22.20;63.60;;;;;;5026873;28;19936;-58
2021/08/22 03:53:52;;;;;;;;;;;22.10;63.60;;;;;;5037880;28;19913;-59
2021/08/22 03:56:17;;;;;;;;;;;22.10;63.60;;;;;;5037886;28;19916;-59
2021/08/22 03:58:43;;;;;;;;;;;22.10;63.80;;;;;;5034804;28;20738;-57
2021/08/22 04:01:08;;;;;;;;;;;22.10;63.60;;;;;;5013148;28;19990;-56
2021/08/22 04:03:36;;;;;;;;;;;22.10;63.60;;;;;;5000443;28;19963;-60
2021/08/22 04:06:01;;;;;;;;;;;22.20;63.50;;;;;;5035833;28;19917;-58
2021/08/22 04:08:27;;;;;;;;;;;22.20;63.60;;;;;;5034727;28;19912;-59
2021/08/22 04:10:52;;;;;;;;;;;22.10;63.60;;;;;;5039130;28;19921;-59
2021/08/22 04:13:19;;;;;;;;;;;22.10;63.60;;;;;;5033563;28;19916;-57
2021/08/22 04:15:45;;;;;;;;;;;22.10;63.40;;;;;;5041951;28;20439;-60
2021/08/22 04:18:10;;;;;;;;;;;22.10;63.50;;;;;;5032288;28;19913;-56
2021/08/22 04:20:35;;;;;;;;;;;22.10;63.60;;;;;;5043037;28;20293;-57
2021/08/22 04:23:01;;;;;;;;;;;22.10;63.20;;;;;;5034592;28;19923;-60
2021/08/22 04:25:26;;;;;;;;;;;22.10;63.60;;;;;;5038374;28;19913;-60
2021/08/22 04:27:52;;;;;;;;;;;22.10;63.70;;;;;;5035072;28;20236;-58
2021/08/22 04:30:17;;;;;;;;;;;22.10;63.50;;;;;;5037699;28;20078;-58
2021/08/22 04:32:43;;;;;;;;;;;22.10;63.60;;;;;;5035505;28;19928;-58
2021/08/22 04:35:08;;;;;;;;;;;22.10;63.40;;;;;;5035698;28;19935;-59
2021/08/22 04:37:34;;;;;;;;;;;22.10;63.40;;;;;;5034599;28;19924;-58
2021/08/22 04:39:59;;;;;;;;;;;22.10;64.20;;;;;;5037373;28;19949;-60
2021/08/22 04:42:25;;;;;;;;;;;22.10;63.60;;;;;;5034714;28;19927;-55
2021/08/22 04:44:50;;;;;;;;;;;22.10;63.70;;;;;;5036651;28;19939;-56
2021/08/22 04:47:16;;;;;;;;;;;22.10;63.40;;;;;;5033280;28;19913;-60
2021/08/22 04:49:41;;;;;;;;;;;22.10;63.30;;;;;;5037821;28;20469;-53
2021/08/22 04:52:07;;;;;;;;;;;22.10;63.20;;;;;;5025601;28;19916;-59
2021/08/22 04:54:33;;;;;;;;;;;22.10;63.40;;;;;;5050943;28;19920;-59
2021/08/22 04:56:58;;;;;;;;;;;22.10;63.40;;;;;;5034982;28;19945;-60
2021/08/22 04:59:24;;;;;;;;;;;22.10;63.20;;;;;;5038568;28;19917;-56
2021/08/22 05:01:50;;;;;;;;;;;22.10;63.00;;;;;;5041276;28;19966;-57
2021/08/22 05:04:15;;;;;;;;;;;22.10;63.00;;;;;;5036473;28;19913;-59
2021/08/22 05:06:41;;;;;;;;;;;22.10;62.80;;;;;;5041885;28;19913;-59
2021/08/22 05:09:06;;;;;;;;;;;22.10;62.70;;;;;;5038408;28;19913;-59
2021/08/22 05:11:32;;;;;;;;;;;22.10;62.50;;;;;;5040675;28;20282;-58
2021/08/22 05:13:58;;;;;;;;;;;22.10;62.40;;;;;;5018107;28;19927;-58
2021/08/22 05:16:23;;;;;;;;;;;22.10;62.30;;;;;;5040777;28;20829;-59
2021/08/22 05:18:49;;;;;;;;;;;22.10;62.10;;;;;;5039684;28;19913;-56
2021/08/22 05:21:14;;;;;;;;;;;22.10;62.10;;;;;;5041524;28;19917;-53
2021/08/22 05:23:40;;;;;;;;;;;22.10;61.90;;;;;;5040374;28;19924;-59
2021/08/22 05:26:05;;;;;;;;;;;22.10;61.70;;;;;;5043712;28;20450;-57
2021/08/22 05:28:31;;;;;;;;;;;22.10;61.70;;;;;;5040894;28;19921;-56
2021/08/22 05:30:56;;;;;;;;;;;22.10;62.50;;;;;;5042022;28;19913;-57
2021/08/22 05:33:21;;;;;;;;;;;22.10;61.70;;;;;;5041385;28;20378;-58
2021/08/22 05:35:47;;;;;;;;;;;22.10;61.90;;;;;;5039361;28;20085;-55
2021/08/22 05:38:12;;;;;;;;;;;22.10;61.90;;;;;;5037816;28;19955;-59
2021/08/22 05:40:38;;;;;;;;;;;22.10;61.90;;;;;;5031108;28;20448;-59
2021/08/22 05:43:04;;;;;;;;;;;22.10;61.90;;;;;;5038231;28;19921;-57
2021/08/22 05:45:29;;;;;;;;;;;22.10;62.00;;;;;;5042031;28;19920;-58
2021/08/22 05:47:55;;;;;;;;;;;22.10;62.10;;;;;;5036851;28;19913;-59
2021/08/22 05:50:20;;;;;;;;;;;22.10;62.10;;;;;;5041162;28;20374;-57
2021/08/22 05:52:46;;;;;;;;;;;22.10;62.10;;;;;;5038591;28;19917;-59
2021/08/22 05:55:11;;;;;;;;;;;22.10;62.10;;;;;;5039686;28;19924;-59
2021/08/22 05:57:37;;;;;;;;;;;22.10;62.20;;;;;;5038391;28;19913;-53
2021/08/22 06:00:06;;;;;;;;;;;22.10;62.20;;;;;;5039467;28;19913;-54
2021/08/22 06:02:31;;;;;;;;;;;22.10;62.20;;;;;;5037127;28;19927;-55
2021/08/22 06:04:56;;;;;;;;;;;22.10;62.20;;;;;;5041148;28;19916;-57
2021/08/22 06:07:23;;;;;;;;;;;22.10;62.30;;;;;;5041823;28;19917;-59
2021/08/22 06:09:49;;;;;;;;;;;22.10;62.30;;;;;;5040557;28;19924;-56
2021/08/22 06:12:15;;;;;;;;;;;22.10;62.40;;;;;;5040332;28;19912;-58
2021/08/22 06:14:40;;;;;;;;;;;22.10;62.30;;;;;;5035540;28;20328;-58
2021/08/22 06:17:05;;;;;;;;;;;22.10;62.30;;;;;;5031605;28;19912;-53
2021/08/22 06:19:31;;;;;;;;;;;22.10;62.40;;;;;;5033365;28;19970;-55
2021/08/22 06:21:56;;;;;;;;;;;22.10;62.50;;;;;;5036166;28;20286;-59
2021/08/22 06:24:22;;;;;;;;;;;22.10;63.00;;;;;;5021673;28;19912;-58
2021/08/22 06:26:47;;;;;;;;;;;22.10;62.90;;;;;;5027950;28;19957;-58
2021/08/22 06:29:13;;;;;;;;;;;22.10;63.10;;;;;;5041224;28;21355;-57
2021/08/22 06:31:38;;;;;;;;;;;22.10;63.20;;;;;;5041779;28;19912;-54
2021/08/22 06:34:07;;;;;;;;;;;22.10;63.10;;;;;;5006880;28;19929;-57
2021/08/22 06:36:33;;;;;;;;;;;22.10;63.40;;;;;;5039335;28;20359;-54
2021/08/22 06:38:58;;;;;;;;;;;22.10;63.40;;;;;;5039695;28;19921;-54
2021/08/22 06:41:23;;;;;;;;;;;22.10;63.40;;;;;;5041275;28;19923;-61
2021/08/22 06:43:49;;;;;;;;;;;22.10;63.20;;;;;;5030037;28;19913;-55
2021/08/22 06:46:14;;;;;;;;;;;22.10;63.20;;;;;;5039620;28;20469;-54
2021/08/22 06:48:40;;;;;;;;;;;22.10;63.40;;;;;;5040773;28;19913;-56
2021/08/22 06:51:05;;;;;;;;;;;22.10;63.30;;;;;;5042521;28;19924;-55
2021/08/22 06:53:31;;;;;;;;;;;22.10;63.30;;;;;;5044329;28;20377;-53
2021/08/22 06:55:56;;;;;;;;;;;22.10;63.20;;;;;;5042204;28;19913;-56
2021/08/22 06:58:23;;;;;;;;;;;22.10;63.20;;;;;;5042704;28;19921;-57
2021/08/22 07:00:48;;;;;;;;;;;22.10;63.40;;;;;;5028424;28;20015;-58
2021/08/22 07:03:14;;;;;;;;;;;22.10;63.40;;;;;;5042252;28;19931;-58
2021/08/22 07:05:39;;;;;;;;;;;22.10;63.40;;;;;;5037411;28;19913;-57
2021/08/22 07:08:05;;;;;;;;;;;22.10;63.30;;;;;;5039084;28;19928;-56
2021/08/22 07:10:30;;;;;;;;;;;22.10;63.30;;;;;;5038332;28;19974;-57
2021/08/22 07:12:55;;;;;;;;;;;22.10;63.50;;;;;;5039597;28;19917;-58
2021/08/22 07:15:21;;;;;;;;;;;22.10;63.60;;;;;;5028848;28;19971;-58
2021/08/22 07:17:46;;;;;;;;;;;22.10;63.60;;;;;;5038236;28;19917;-58
2021/08/22 07:20:12;;;;;;;;;;;22.00;64.30;;;;;;5041735;28;19917;-52
2021/08/22 07:22:38;;;;;;;;;;;22.10;63.80;;;;;;5039943;28;19983;-58
2021/08/22 07:25:04;;;;;;;;;;;22.00;64.00;;;;;;5041481;28;20295;-57
2021/08/22 07:27:30;;;;;;;;;;;22.00;63.80;;;;;;5040853;28;19917;-55
2021/08/22 07:29:55;;;;;;;;;;;22.00;63.90;;;;;;5041011;28;20615;-57
2021/08/22 07:32:21;;;;;;;;;;;22.00;64.10;;;;;;5045964;22;19933;-73
2021/08/22 07:34:46;;;;;;;;;;;22.00;64.20;;;;;;5016669;28;19942;-74
2021/08/22 07:37:12;;;;;;;;;;;22.10;64.10;;;;;;5014289;28;19924;-73
2021/08/22 07:39:37;;;;;;;;;;;22.10;64.30;;;;;;5000768;28;19917;-73
2021/08/22 07:42:03;;;;;;;;;;;22.10;64.20;;;;;;4993070;28;20387;-74
2021/08/22 07:44:28;;;;;;;;;;;22.10;64.40;;;;;;4994846;28;19940;-74
2021/08/22 07:46:54;;;;;;;;;;;22.00;64.50;;;;;;4987340;28;20338;-73
2021/08/22 07:49:19;;;;;;;;;;;22.10;64.80;;;;;;4981966;28;19929;-74
2021/08/22 07:51:48;;;;;;;;;;;22.00;64.70;;;;;;4974965;28;19914;-74
2021/08/22 07:54:14;;;;;;;;;;;22.00;64.90;;;;;;4988101;28;19913;-75
2021/08/22 07:56:42;;;;;;;;;;;22.00;64.90;;;;;;5017341;28;19924;-74
2021/08/22 07:59:08;;;;;;;;;;;22.00;64.70;;;;;;4993574;28;19921;-74
2021/08/22 08:01:34;;;;;;;;;;;22.00;64.60;;;;;;4984584;28;19921;-75
2021/08/22 08:03:59;;;;;;;;;;;22.00;64.50;;;;;;4997806;28;20288;-75
2021/08/22 08:06:24;;;;;;;;;;;22.00;64.50;;;;;;4981616;28;19918;-73
2021/08/22 08:08:50;;;;;;;;;;;22.00;64.50;;;;;;4994296;28;19921;-74
2021/08/22 08:11:15;;;;;;;;;;;22.00;64.60;;;;;;4990603;28;19917;-73
2021/08/22 08:13:41;;;;;;;;;;;22.10;64.80;;;;;;4982673;28;19922;-73
2021/08/22 08:16:06;;;;;;;;;;;22.00;64.90;;;;;;4981194;28;19918;-73
2021/08/22 08:18:33;;;;;;;;;;;22.00;65.00;;;;;;4985985;28;19987;-73
2021/08/22 08:20:59;;;;;;;;;;;22.00;65.10;;;;;;4996470;28;20000;-74
2021/08/22 08:23:24;;;;;;;;;;;22.00;65.20;;;;;;4990425;28;20339;-74
2021/08/22 08:25:52;;;;;;;;;;;22.00;65.30;;;;;;4985160;28;20687;-73
2021/08/22 08:28:17;;;;;;;;;;;22.00;65.20;;;;;;4985598;28;19992;-74
2021/08/22 08:30:43;;;;;;;;;;;22.00;65.40;;;;;;4991028;28;19997;-74
2021/08/22 08:33:08;;;;;;;;;;;22.00;65.50;;;;;;4990061;28;20311;-74
2021/08/22 08:35:34;;;;;;;;;;;22.00;65.50;;;;;;4994775;28;19989;-73
2021/08/22 08:37:59;;;;;;;;;;;22.00;65.50;;;;;;5002148;28;19917;-74
2021/08/22 08:40:25;;;;;;;;;;;22.00;65.50;;;;;;4986861;28;19925;-73
2021/08/22 08:42:50;;;;;;;;;;;22.00;65.60;;;;;;4989444;28;19921;-74
2021/08/22 08:45:25;;;;;;;;;;;22.00;65.50;;;;;;5001882;28;19921;-76
2021/08/22 08:47:51;;;;;;;;;;;22.00;65.40;;;;;;4997852;28;19921;-75
2021/08/22 08:50:23;;;;;;;;;;;22.00;65.30;;;;;;5002097;28;20481;-73
2021/08/22 08:52:55;;;;;;;;;;;22.00;65.20;;;;;;4996653;28;19934;-73
2021/08/22 08:55:25;;;;;;;;;;;22.00;65.30;;;;;;4992134;28;20718;-73
2021/08/22 08:57:50;;;;;;;;;;;22.00;65.40;;;;;;4992636;28;20617;-74
2021/08/22 09:00:19;;;;;;;;;;;22.00;65.30;;;;;;4998523;28;19914;-74
2021/08/22 09:02:45;;;;;;;;;;;22.00;65.60;;;;;;4991374;28;20124;-74
2021/08/22 09:05:25;;;;;;;;;;;22.00;65.60;;;;;;5006169;28;20008;-74
2021/08/22 09:08:10;;;;;;;;;;;22.00;65.80;;;;;;4992597;28;19914;-73
2021/08/22 09:10:42;;;;;;;;;;;22.00;65.80;;;;;;4995879;28;19924;-73
2021/08/22 09:13:26;;;;;;;;;;;22.00;65.80;;;;;;4998418;28;19945;-72
2021/08/22 09:16:10;;;;;;;;;;;22.10;66.00;;;;;;4997164;28;19914;-73
2021/08/22 09:18:57;;;;;;;;;;;22.00;66.10;;;;;;4999554;28;20361;-74
2021/08/22 09:21:41;;;;;;;;;;;22.00;66.00;;;;;;5000973;28;20056;-73
2021/08/22 09:24:25;;;;;;;;;;;22.00;66.30;;;;;;4999045;28;19917;-72
2021/08/22 09:27:09;;;;;;;;;;;22.00;66.50;;;;;;5006074;28;19914;-73
2021/08/22 09:29:54;;;;;;;;;;;22.00;66.60;;;;;;5004663;28;20014;-72
2021/08/22 09:32:38;;;;;;;;;;;22.00;66.40;;;;;;4997791;28;19971;-73
2021/08/22 09:35:16;;;;;;;;;;;22.00;66.30;;;;;;4997382;28;19992;-74
2021/08/22 09:38:00;;;;;;;;;;;22.00;66.50;;;;;;4988893;28;19925;-73
2021/08/22 09:40:44;;;;;;;;;;;22.00;66.60;;;;;;5003393;28;20558;-74
2021/08/22 09:43:29;;;;;;;;;;;22.00;66.50;;;;;;4985577;28;20009;-75
2021/08/22 09:46:14;;;;;;;;;;;22.00;66.50;;;;;;4992902;28;19918;-76
2021/08/22 09:48:58;;;;;;;;;;;22.00;66.40;;;;;;4994796;28;19914;-74
2021/08/22 09:51:42;;;;;;;;;;;22.00;66.50;;;;;;4996161;28;19922;-75
2021/08/22 09:54:11;;;;;;;;;;;22.00;66.50;;;;;;4997145;28;19918;-77
2021/08/22 09:56:55;;;;;;;;;;;22.00;66.60;;;;;;5004102;28;19924;-76
2021/08/22 09:59:48;;;;;;;;;;;22.00;66.60;;;;;;4999303;28;20294;-76
2021/08/22 10:02:32;;;;;;;;;;;22.00;66.70;;;;;;5001459;28;20623;-76
2021/08/22 10:05:10;;;;;;;;;;;22.00;66.50;;;;;;4993845;28;19918;-76
2021/08/22 10:07:54;;;;;;;;;;;22.00;66.60;;;;;;4990628;28;19924;-77
2021/08/22 10:10:38;;;;;;;;;;;22.00;66.50;;;;;;4995492;28;19914;-76
2021/08/22 10:13:04;;;;;;;;;;;22.00;66.50;;;;;;4987296;28;20057;-76
2021/08/22 10:15:29;;;;;;;;;;;22.00;66.60;;;;;;4989420;28;19922;-76
2021/08/22 10:17:55;;;;;;;;;;;22.00;66.50;;;;;;4985910;28;19921;-76
2021/08/22 10:20:20;;;;;;;;;;;22.00;66.50;;;;;;4993959;28;19961;-76
2021/08/22 10:22:48;;;;;;;;;;;22.00;66.40;;;;;;4974813;28;19918;-78
2021/08/22 10:25:19;;;;;;;;;;;22.00;66.40;;;;;;4992137;28;19968;-75
2021/08/22 10:27:48;;;;;;;;;;;22.00;66.30;;;;;;4971189;28;19918;-76
2021/08/22 10:30:31;;;;;;;;;;;22.00;66.20;;;;;;5004185;28;19928;-76
2021/08/22 10:32:57;;;;;;;;;;;22.00;66.30;;;;;;5002718;28;19945;-76
2021/08/22 10:35:25;;;;;;;;;;;22.00;66.50;;;;;;4990620;28;19926;-76
2021/08/22 10:37:51;;;;;;;;;;;22.00;66.50;;;;;;4999181;28;19918;-77
2021/08/22 10:40:25;;;;;;;;;;;22.00;66.50;;;;;;4993061;28;19968;-76
2021/08/22 10:42:56;;;;;;;;;;;22.00;66.70;;;;;;5004980;28;20417;-77
2021/08/22 10:45:41;;;;;;;;;;;22.00;66.70;;;;;;5003489;28;20001;-75
2021/08/22 10:48:07;;;;;;;;;;;22.00;66.70;;;;;;5016389;28;19914;-76
2021/08/22 10:50:52;;;;;;;;;;;22.00;66.80;;;;;;4987030;28;19944;-76
2021/08/22 10:53:24;;;;;;;;;;;22.00;67.00;;;;;;4992820;28;20491;-77
2021/08/22 10:55:50;;;;;;;;;;;22.10;66.70;;;;;;4995457;28;20012;-76
2021/08/22 10:58:15;;;;;;;;;;;22.10;66.50;;;;;;4974844;28;20553;-77
2021/08/22 11:00:41;;;;;;;;;;;22.10;66.50;;;;;;4997660;28;20391;-76
2021/08/22 11:03:16;;;;;;;;;;;22.10;66.30;;;;;;4997072;28;19917;-77
2021/08/22 11:05:41;;;;;;;;;;;22.00;66.40;;;;;;4996240;28;19991;-76
2021/08/22 11:08:13;;;;;;;;;;;22.00;66.40;;;;;;4993570;28;19922;-76
2021/08/22 11:10:38;;;;;;;;;;;22.10;66.50;;;;;;4985234;28;19913;-73
2021/08/22 11:13:04;;;;;;;;;;;22.00;66.70;;;;;;4995143;28;19918;-77
2021/08/22 11:15:31;;;;;;;;;;;22.00;66.70;;;;;;4995863;28;19940;-76
2021/08/22 11:18:00;;;;;;;;;;;22.00;66.80;;;;;;5017463;28;20020;-76
2021/08/22 11:20:29;;;;;;;;;;;22.00;67.00;;;;;;4991200;28;19921;-75
2021/08/22 11:23:16;;;;;;;;;;;22.00;66.80;;;;;;4989117;28;19918;-74
2021/08/22 11:25:41;;;;;;;;;;;22.00;67.00;;;;;;4987066;28;19914;-74
2021/08/22 11:28:10;;;;;;;;;;;22.00;67.20;;;;;;4990035;28;20001;-73
2021/08/22 11:30:36;;;;;;;;;;;22.00;67.30;;;;;;4990433;28;20387;-78
2021/08/22 11:33:02;;;;;;;;;;;22.00;67.20;;;;;;4990564;28;20055;-75
2021/08/22 11:35:27;;;;;;;;;;;22.00;67.60;;;;;;4995289;28;19913;-75
2021/08/22 11:37:53;;;;;;;;;;;22.00;67.60;;;;;;4994617;28;19972;-75
2021/08/22 11:40:19;;;;;;;;;;;22.00;68.40;;;;;;4967890;28;20005;-75
2021/08/22 11:42:48;;;;;;;;;;;22.00;68.40;;;;;;5001425;28;20280;-75
2021/08/22 11:45:14;;;;;;;;;;;22.00;68.10;;;;;;4973199;28;19960;-75
2021/08/22 11:47:39;;;;;;;;;;;22.00;68.60;;;;;;4992260;28;19917;-75
2021/08/22 11:50:06;;;;;;;;;;;22.00;68.50;;;;;;4988772;28;20421;-74
2021/08/22 11:52:32;;;;;;;;;;;22.00;68.00;;;;;;4998219;28;19933;-75
2021/08/22 11:54:58;;;;;;;;;;;22.00;67.90;;;;;;4996932;28;20028;-74
2021/08/22 11:57:25;;;;;;;;;;;22.00;67.90;;;;;;4994140;28;19993;-74
2021/08/22 12:00:06;;;;;;;;;;;22.00;68.20;;;;;;4998029;28;19945;-75
2021/08/22 12:02:31;;;;;;;;;;;22.00;67.70;;;;;;4989888;28;19921;-75
2021/08/22 12:05:16;;;;;;;;;;;22.00;68.00;;;;;;4984075;28;19914;-77
2021/08/22 12:07:42;;;;;;;;;;;22.10;68.00;;;;;;4998741;28;20012;-75
2021/08/22 12:10:08;;;;;;;;;;;22.00;67.90;;;;;;4991023;28;20353;-74
2021/08/22 12:12:39;;;;;;;;;;;22.00;68.10;;;;;;4987907;28;20642;-75
2021/08/22 12:15:08;;;;;;;;;;;22.00;68.00;;;;;;4988356;28;19929;-74
2021/08/22 12:17:33;;;;;;;;;;;22.10;68.00;;;;;;4990186;28;20011;-75
2021/08/22 12:20:18;;;;;;;;;;;22.10;68.00;;;;;;4991278;28;19922;-75
2021/08/22 12:22:43;;;;;;;;;;;22.10;68.00;;;;;;4987743;28;19932;-74
2021/08/22 12:25:22;;;;;;;;;;;22.10;68.10;;;;;;4994701;28;19918;-76
2021/08/22 12:27:48;;;;;;;;;;;22.10;68.00;;;;;;4984325;28;20387;-76
2021/08/22 12:30:14;;;;;;;;;;;22.10;68.00;;;;;;4991434;28;19918;-76
2021/08/22 12:32:39;;;;;;;;;;;22.10;68.10;;;;;;4980329;28;19968;-76
2021/08/22 12:35:05;;;;;;;;;;;22.10;68.10;;;;;;4989751;28;19918;-76
2021/08/22 12:37:31;;;;;;;;;;;22.10;68.10;;;;;;4999243;28;20021;-75
2021/08/22 12:40:00;;;;;;;;;;;22.10;68.10;;;;;;4993969;28;19913;-76
2021/08/22 12:42:25;;;;;;;;;;;22.10;68.00;;;;;;4992482;28;20013;-76
2021/08/22 12:44:51;;;;;;;;;;;22.10;68.20;;;;;;4992055;28;20021;-77
2021/08/22 12:47:16;;;;;;;;;;;22.00;68.00;;;;;;4992063;28;19914;-76
2021/08/22 12:49:42;;;;;;;;;;;22.10;68.10;;;;;;4994262;28;19914;-76
2021/08/22 12:52:09;;;;;;;;;;;22.10;68.00;;;;;;4994660;28;19918;-75
2021/08/22 12:54:35;;;;;;;;;;;22.10;67.90;;;;;;4992478;28;19945;-77
2021/08/22 12:57:00;;;;;;;;;;;22.10;67.90;;;;;;4992155;28;19972;-77
2021/08/22 12:59:26;;;;;;;;;;;22.10;67.80;;;;;;4986758;28;19993;-77
2021/08/22 13:01:51;;;;;;;;;;;22.10;67.90;;;;;;5001962;28;20406;-76
2021/08/22 13:04:17;;;;;;;;;;;22.10;68.00;;;;;;4989273;28;20597;-77
2021/08/22 13:06:43;;;;;;;;;;;22.10;68.00;;;;;;4976968;28;20422;-76
2021/08/22 13:09:08;;;;;;;;;;;22.10;68.00;;;;;;4994998;28;19920;-76
2021/08/22 13:11:34;;;;;;;;;;;22.10;68.00;;;;;;5002923;28;19914;-76
2021/08/22 13:13:59;;;;;;;;;;;22.10;68.00;;;;;;5003207;28;19917;-76
2021/08/22 13:16:25;;;;;;;;;;;22.10;67.90;;;;;;4973287;28;20525;-77
2021/08/22 13:18:50;;;;;;;;;;;22.10;68.00;;;;;;5001640;28;20368;-77
2021/08/22 13:21:16;;;;;;;;;;;22.10;67.80;;;;;;5001121;28;20425;-76
2021/08/22 13:23:41;;;;;;;;;;;22.10;67.80;;;;;;4998720;28;19914;-77
2021/08/22 13:26:07;;;;;;;;;;;22.10;67.90;;;;;;4985317;28;20405;-76
2021/08/22 13:28:32;;;;;;;;;;;22.10;67.90;;;;;;5007487;28;19959;-76
2021/08/22 13:30:58;;;;;;;;;;;22.10;67.90;;;;;;5006894;28;19913;-77
2021/08/22 13:33:24;;;;;;;;;;;22.10;67.70;;;;;;4985169;28;19932;-76
2021/08/22 13:35:49;;;;;;;;;;;22.10;68.20;;;;;;5002939;28;19913;-76
2021/08/22 13:38:15;;;;;;;;;;;22.10;67.80;;;;;;4995398;28;19914;-76
2021/08/22 13:40:40;;;;;;;;;;;22.10;67.60;;;;;;4992873;28;19968;-77
2021/08/22 13:43:06;;;;;;;;;;;22.10;67.70;;;;;;4986742;28;20058;-76
2021/08/22 13:45:31;;;;;;;;;;;22.10;67.50;;;;;;4990021;28;19918;-76
2021/08/22 13:47:57;;;;;;;;;;;22.10;67.60;;;;;;5002323;28;19918;-76
2021/08/22 13:50:22;;;;;;;;;;;22.10;67.50;;;;;;4984376;28;19917;-76
2021/08/22 13:52:47;;;;;;;;;;;22.10;67.50;;;;;;5002342;28;20398;-76
2021/08/22 13:55:13;;;;;;;;;;;22.20;67.50;;;;;;5003367;28;19917;-76
2021/08/22 13:57:38;;;;;;;;;;;22.20;67.30;;;;;;5000150;28;19918;-76
2021/08/22 14:00:04;;;;;;;;;;;22.10;67.50;;;;;;4998813;28;19918;-77
2021/08/22 14:02:30;;;;;;;;;;;22.20;67.30;;;;;;5003516;28;19921;-76
2021/08/22 14:04:55;;;;;;;;;;;22.10;67.50;;;;;;5003109;28;19971;-77
2021/08/22 14:07:21;;;;;;;;;;;22.10;67.40;;;;;;4996019;28;19922;-75
2021/08/22 14:09:46;;;;;;;;;;;22.20;67.60;;;;;;5002006;28;19961;-75
2021/08/22 14:12:12;;;;;;;;;;;22.10;67.60;;;;;;4996136;28;20294;-77
2021/08/22 14:14:37;;;;;;;;;;;22.20;67.50;;;;;;5003210;28;19918;-76
2021/08/22 14:17:03;;;;;;;;;;;22.20;67.60;;;;;;5006752;28;19925;-75